Time;durP1;ratioP1;P1;durP2;ratioP2;P2;SDS_P1;SDS_P2;PMS_P1;PMS_P2;Temp;Humidity;BMP_temperature;BMP_pressure;BME280_temperature;BME280_humidity;BME280_pressure;Samples;Min_cycle;Max_cycle;Signal;HPM_P1;HPM_P2
2023/08/13 00:01:21;;;;;;;6.78;3.60;;;;;;;16.66;65.33;96809.63;5013735;28;20049;-69
2023/08/13 00:03:48;;;;;;;6.40;3.53;;;;;;;16.67;65.79;96806.91;5013723;28;20046;-69
2023/08/13 00:06:15;;;;;;;5.68;3.47;;;;;;;16.61;65.63;96796.69;5013741;28;20053;-69
2023/08/13 00:08:42;;;;;;;4.22;3.47;;;;;;;16.60;66.18;96795.00;5013570;28;20101;-69
2023/08/13 00:11:11;;;;;;;5.00;3.25;;;;;;;16.48;66.45;96791.28;5013560;28;20054;-69
2023/08/13 00:13:39;;;;;;;6.60;3.70;;;;;;;16.43;66.72;96793.34;5013536;28;20050;-69
2023/08/13 00:16:07;;;;;;;4.50;4.05;;;;;;;16.43;66.72;96788.06;5013527;28;20050;-69
2023/08/13 00:18:35;;;;;;;4.13;3.80;;;;;;;16.36;67.42;96782.28;5013548;28;20145;-69
2023/08/13 00:21:02;;;;;;;6.25;3.60;;;;;;;16.39;67.28;96789.19;5013730;28;20144;-69
2023/08/13 00:23:29;;;;;;;6.32;4.40;;;;;;;16.40;66.95;96791.72;5013330;28;20377;-69
2023/08/13 00:25:56;;;;;;;6.75;4.18;;;;;;;16.40;67.42;96793.50;5013304;28;20062;-68
2023/08/13 00:28:25;;;;;;;5.38;4.22;;;;;;;16.41;67.34;96790.78;5013069;28;20054;-69
2023/08/13 00:30:55;;;;;;;5.13;4.43;;;;;;;16.38;67.99;96796.25;5013378;28;20104;-69
2023/08/13 00:33:22;;;;;;;3.97;3.50;;;;;;;16.36;67.80;96797.28;5013442;28;20053;-69
2023/08/13 00:35:50;;;;;;;7.93;4.13;;;;;;;16.37;67.80;96784.00;5013196;28;20050;-69
2023/08/13 00:38:17;;;;;;;4.97;3.63;;;;;;;16.40;67.78;96793.50;5013434;28;20062;-69
2023/08/13 00:40:45;;;;;;;5.45;3.90;;;;;;;16.33;67.93;96794.81;5013152;28;20054;-69
2023/08/13 00:43:11;;;;;;;4.68;3.55;;;;;;;16.32;68.42;96793.97;5013193;28;20045;-69
2023/08/13 00:45:39;;;;;;;4.68;4.05;;;;;;;16.38;68.07;96795.41;5013110;28;20057;-69
2023/08/13 00:48:08;;;;;;;5.43;4.22;;;;;;;16.35;68.85;96790.31;5013306;28;20132;-69
2023/08/13 00:50:36;;;;;;;8.25;4.20;;;;;;;16.37;68.92;96786.63;5013113;28;20450;-69
2023/08/13 00:53:04;;;;;;;8.95;4.10;;;;;;;16.45;68.68;96785.34;5013214;28;20049;-69
2023/08/13 00:55:31;;;;;;;6.40;4.30;;;;;;;16.53;68.48;96793.66;5013074;28;20076;-69
2023/08/13 00:57:59;;;;;;;6.50;3.72;;;;;;;16.53;68.05;96780.47;5013085;28;20050;-69
2023/08/13 01:00:27;;;;;;;4.63;4.03;;;;;;;16.52;68.68;96789.31;5013018;28;20046;-69
2023/08/13 01:02:54;;;;;;;8.27;4.03;;;;;;;16.49;68.87;96787.69;5012871;28;20081;-69
2023/08/13 01:05:28;;;;;;;4.07;3.67;;;;;;;16.52;68.65;96779.59;5012946;28;20085;-69
2023/08/13 01:08:03;;;;;;;6.25;3.95;;;;;;;16.55;68.56;96778.56;5013011;28;20053;-69
2023/08/13 01:10:35;;;;;;;5.40;4.03;;;;;;;16.60;67.99;96778.31;5012934;28;20129;-69
2023/08/13 01:13:09;;;;;;;6.70;4.43;;;;;;;16.60;68.03;96778.31;5012860;28;20104;-69
2023/08/13 01:15:39;;;;;;;4.80;4.30;;;;;;;16.62;67.97;96779.91;5012895;28;20424;-69
2023/08/13 01:18:08;;;;;;;4.40;4.00;;;;;;;16.67;67.91;96774.34;5012909;28;20180;-69
2023/08/13 01:20:39;;;;;;;5.10;4.05;;;;;;;16.69;67.75;96767.22;5013026;28;20104;-69
2023/08/13 01:23:08;;;;;;;4.50;3.60;;;;;;;16.74;67.65;96767.78;5012731;28;20050;-69
2023/08/13 01:25:35;;;;;;;4.90;3.90;;;;;;;16.79;67.64;96767.50;5012638;28;20488;-69
2023/08/13 01:28:12;;;;;;;8.10;4.30;;;;;;;16.74;67.22;96767.78;5012788;28;20619;-69
2023/08/13 01:30:45;;;;;;;6.43;4.13;;;;;;;16.71;67.38;96765.34;5012853;28;20404;-69
2023/08/13 01:33:18;;;;;;;4.82;3.95;;;;;;;16.70;67.41;96773.34;5012772;28;20046;-69
2023/08/13 01:35:46;;;;;;;4.10;3.65;;;;;;;16.65;67.82;96776.25;5012591;28;20052;-69
2023/08/13 01:38:15;;;;;;;4.70;4.10;;;;;;;16.59;67.42;96774.84;5012716;28;20502;-69
2023/08/13 01:40:43;;;;;;;3.75;3.42;;;;;;;16.52;67.71;96778.75;5015896;28;20475;-69
2023/08/13 01:43:10;;;;;;;4.57;3.58;;;;;;;16.48;67.96;96778.09;5016183;28;20046;-69
2023/08/13 01:45:37;;;;;;;4.18;3.78;;;;;;;16.46;67.89;96776.50;5016227;28;20050;-69
2023/08/13 01:48:05;;;;;;;8.45;3.92;;;;;;;16.40;68.38;96782.94;5016332;28;20065;-69
2023/08/13 01:50:32;;;;;;;8.57;3.72;;;;;;;16.35;68.15;96779.75;5016158;28;20104;-69
2023/08/13 01:52:59;;;;;;;4.38;3.78;;;;;;;16.28;68.67;96781.88;5015985;28;20057;-69
2023/08/13 01:55:28;;;;;;;7.07;4.47;;;;;;;16.19;68.76;96774.50;5015939;28;20487;-69
2023/08/13 01:57:55;;;;;;;5.53;4.25;;;;;;;16.18;68.84;96773.66;5015937;28;20046;-69
2023/08/13 02:00:22;;;;;;;4.68;4.20;;;;;;;16.15;68.98;96772.03;5015914;28;20076;-69
2023/08/13 02:02:49;;;;;;;6.25;4.25;;;;;;;16.12;69.30;96779.25;5015820;28;20081;-69
2023/08/13 02:05:16;;;;;;;5.47;3.83;;;;;;;16.06;69.22;96782.25;5015785;28;20141;-69
2023/08/13 02:07:43;;;;;;;6.80;4.88;;;;;;;16.03;69.49;96778.00;5015725;28;20570;-69
2023/08/13 02:10:11;;;;;;;9.20;4.30;;;;;;;15.97;69.38;96775.69;5015682;28;20049;-69
2023/08/13 02:12:40;;;;;;;5.65;4.55;;;;;;;15.85;69.42;96774.56;5015684;28;20055;-69
2023/08/13 02:15:08;;;;;;;6.30;4.35;;;;;;;15.81;69.65;96780.97;5015541;28;20608;-69
2023/08/13 02:17:35;;;;;;;6.50;4.32;;;;;;;15.78;69.80;96774.06;5015505;28;20041;-69
2023/08/13 02:20:02;;;;;;;6.75;4.43;;;;;;;15.79;70.30;96775.75;5015508;28;20483;-69
2023/08/13 02:22:29;;;;;;;4.95;4.47;;;;;;;15.77;70.16;96775.84;5015407;28;20073;-69
2023/08/13 02:24:56;;;;;;;6.40;4.13;;;;;;;15.77;70.19;96781.13;5015131;28;20049;-69
2023/08/13 02:27:23;;;;;;;6.35;4.18;;;;;;;15.78;70.01;96776.72;5015394;28;20050;-69
2023/08/13 02:29:52;;;;;;;4.68;3.67;;;;;;;15.82;69.63;96778.22;5015303;28;20492;-69
2023/08/13 02:32:19;;;;;;;4.13;3.72;;;;;;;15.83;69.80;96779.09;5015366;28;20042;-69
2023/08/13 02:34:48;;;;;;;5.40;4.15;;;;;;;15.83;69.67;96784.38;5015158;28;20050;-69
2023/08/13 02:37:15;;;;;;;6.40;4.50;;;;;;;15.76;69.59;96787.34;5015226;28;20049;-69
2023/08/13 02:39:42;;;;;;;4.10;3.70;;;;;;;15.77;69.89;96796.94;5015008;28;20088;-70
2023/08/13 02:42:09;;;;;;;6.65;4.38;;;;;;;15.75;69.78;96795.34;5015056;28;20046;-69
2023/08/13 02:44:36;;;;;;;5.47;4.13;;;;;;;15.73;70.11;96800.69;5015016;28;20129;-70
2023/08/13 02:47:04;;;;;;;4.97;4.15;;;;;;;15.73;69.85;96798.06;5015069;28;20092;-69
2023/08/13 02:49:32;;;;;;;5.00;4.00;;;;;;;15.76;69.66;96797.03;5014823;28;20050;-70
2023/08/13 02:51:59;;;;;;;4.60;3.55;;;;;;;15.79;69.73;96796.88;5014842;28;20042;-69
2023/08/13 02:54:26;;;;;;;4.28;3.88;;;;;;;15.74;69.46;96796.28;5014854;28;20046;-69
2023/08/13 02:56:53;;;;;;;5.90;4.07;;;;;;;15.75;69.69;96798.81;5014882;28;20155;-70
2023/08/13 02:59:20;;;;;;;5.10;4.13;;;;;;;15.67;69.46;96795.75;5014717;28;20491;-69
2023/08/13 03:01:47;;;;;;;6.95;4.28;;;;;;;15.68;69.79;96797.44;5014787;28;20054;-70
2023/08/13 03:04:16;;;;;;;7.03;4.43;;;;;;;15.63;69.98;96797.69;5014708;28;20099;-70
2023/08/13 03:06:43;;;;;;;6.07;4.75;;;;;;;15.52;70.18;96803.56;5014606;28;20049;-70
2023/08/13 03:09:18;;;;;;;4.75;3.67;;;;;;;15.49;70.52;96797.59;5014858;28;20081;-70
2023/08/13 03:11:45;;;;;;;4.60;4.10;;;;;;;15.39;70.21;96798.09;5014513;28;20100;-70
2023/08/13 03:14:13;;;;;;;7.80;3.92;;;;;;;15.44;70.63;96797.84;5014473;28;20084;-70
2023/08/13 03:16:40;;;;;;;5.25;4.25;;;;;;;15.43;70.33;96793.50;5014536;28;20054;-70
2023/08/13 03:19:07;;;;;;;4.72;4.00;;;;;;;15.38;71.84;96804.31;5014395;28;20133;-70
2023/08/13 03:21:36;;;;;;;4.38;3.83;;;;;;;15.37;71.72;96807.00;5014430;28;20125;-70
2023/08/13 03:24:04;;;;;;;4.82;4.20;;;;;;;15.43;71.70;96800.56;5014349;28;20050;-70
2023/08/13 03:26:31;;;;;;;5.78;4.18;;;;;;;15.47;71.39;96810.03;5014167;28;20495;-70
2023/08/13 03:28:59;;;;;;;5.97;4.53;;;;;;;15.44;71.88;96810.19;5014274;28;20042;-70
2023/08/13 03:31:26;;;;;;;5.05;4.13;;;;;;;15.48;71.95;96806.44;5014302;28;20064;-70
2023/08/13 03:33:53;;;;;;;4.53;4.13;;;;;;;15.56;71.86;96806.03;5014195;28;20050;-70
2023/08/13 03:36:20;;;;;;;4.30;3.90;;;;;;;15.54;71.76;96808.75;5014156;28;20054;-70
2023/08/13 03:38:49;;;;;;;6.30;4.00;;;;;;;15.48;72.15;96815.22;5014129;28;20084;-70
2023/08/13 03:41:16;;;;;;;3.95;3.63;;;;;;;15.57;71.78;96808.59;5014028;28;20491;-69
2023/08/13 03:43:43;;;;;;;5.80;4.10;;;;;;;15.65;71.74;96816.94;5014114;28;20054;-69
2023/08/13 03:46:10;;;;;;;5.53;3.97;;;;;;;15.68;71.53;96812.44;5013904;28;20045;-69
2023/08/13 03:48:37;;;;;;;4.72;4.15;;;;;;;15.66;72.07;96807.25;5013938;28;20072;-69
2023/08/13 03:51:04;;;;;;;5.93;4.00;;;;;;;15.67;71.99;96819.47;5013934;28;20046;-69
2023/08/13 03:53:31;;;;;;;4.32;3.92;;;;;;;15.63;71.87;96816.16;5013853;28;20524;-69
2023/08/13 03:56:00;;;;;;;4.18;3.78;;;;;;;15.64;71.85;96815.25;5013720;28;20054;-69
2023/08/13 03:58:27;;;;;;;12.65;4.60;;;;;;;15.65;72.20;96822.19;5013875;28;20411;-69
2023/08/13 04:00:54;;;;;;;5.05;4.55;;;;;;;15.83;72.16;96819.50;5013933;28;20082;-69
2023/08/13 04:03:21;;;;;;;5.40;4.00;;;;;;;16.22;70.69;96827.94;5013319;28;20050;-69
2023/08/13 04:05:48;;;;;;;5.40;3.53;;;;;;;16.72;69.23;96840.13;5013685;28;20116;-69
2023/08/13 04:08:15;;;;;;;3.72;3.38;;;;;;;17.29;67.63;96831.50;5013657;28;20488;-69
2023/08/13 04:10:43;;;;;;;4.22;3.58;;;;;;;17.87;64.92;96829.75;5013415;28;20447;-70
2023/08/13 04:13:11;;;;;;;5.35;3.83;;;;;;;18.36;62.96;96836.38;5013389;28;20462;-70
2023/08/13 04:15:38;;;;;;;4.70;3.78;;;;;;;18.75;61.34;96836.50;5013457;28;20054;-70
2023/08/13 04:18:06;;;;;;;4.85;3.47;;;;;;;19.09;60.21;96843.19;5013363;28;20488;-70
2023/08/13 04:20:33;;;;;;;3.42;3.08;;;;;;;19.51;58.43;96840.31;5013404;28;20050;-70
2023/08/13 04:23:00;;;;;;;3.55;3.08;;;;;;;19.86;57.28;96842.28;5013527;28;20184;-69
2023/08/13 04:25:27;;;;;;;4.65;3.22;;;;;;;20.15;56.45;96850.00;5013147;28;20603;-70
2023/08/13 04:27:55;;;;;;;5.47;3.42;;;;;;;20.28;55.60;96839.34;5013383;28;20053;-70
2023/08/13 04:30:23;;;;;;;3.47;2.90;;;;;;;20.63;55.55;96845.69;5013431;28;20054;-70
2023/08/13 04:32:54;;;;;;;5.70;3.13;;;;;;;21.07;53.79;96848.63;5013386;28;20057;-70
2023/08/13 04:35:21;;;;;;;4.20;3.05;;;;;;;21.43;53.11;96840.59;5013268;28;20050;-70
2023/08/13 04:37:49;;;;;;;3.78;3.03;;;;;;;21.81;52.71;96849.22;5013303;28;20407;-69
2023/08/13 04:40:16;;;;;;;7.78;3.00;;;;;;;22.27;51.65;96848.34;5013141;28;20086;-70
2023/08/13 04:42:44;;;;;;;5.03;3.00;;;;;;;22.62;50.58;96846.44;5013159;28;20057;-70
2023/08/13 04:45:12;;;;;;;3.53;2.80;;;;;;;22.90;49.98;96849.50;5013242;28;20133;-69
2023/08/13 04:47:41;;;;;;;6.10;3.15;;;;;;;23.13;49.30;96844.88;5013090;28;20057;-70
2023/08/13 04:50:10;;;;;;;3.53;2.72;;;;;;;23.46;49.02;96843.00;5013155;28;20049;-69
2023/08/13 04:52:38;;;;;;;3.88;3.42;;;;;;;23.63;48.68;96846.00;5013149;28;20049;-69
2023/08/13 04:55:06;;;;;;;3.10;2.65;;;;;;;23.54;48.30;96844.16;5013046;28;20050;-69
2023/08/13 04:57:32;;;;;;;5.47;2.97;;;;;;;23.69;48.30;96844.66;5013177;28;20054;-69
2023/08/13 05:00:00;;;;;;;4.05;3.13;;;;;;;24.02;48.00;96844.47;5013092;28;20050;-69
2023/08/13 05:02:27;;;;;;;4.30;2.83;;;;;;;24.36;47.72;96844.19;5013141;28;20050;-69
2023/08/13 05:04:56;;;;;;;2.75;2.55;;;;;;;24.68;47.64;96850.25;5012934;28;20046;-69
2023/08/13 05:07:23;;;;;;;3.50;3.15;;;;;;;24.95;46.52;96852.25;5013096;28;20076;-69
2023/08/13 05:09:50;;;;;;;3.75;2.88;;;;;;;25.20;45.99;96857.16;5012924;28;20092;-69
2023/08/13 05:12:17;;;;;;;5.50;2.88;;;;;;;25.44;45.73;96851.34;5012943;28;20077;-69
2023/08/13 05:14:44;;;;;;;3.17;2.88;;;;;;;25.71;45.06;96851.56;5014780;28;20046;-69
2023/08/13 05:17:19;;;;;;;3.08;2.78;;;;;;;25.84;44.33;96849.41;5016636;28;20504;-69
2023/08/13 05:19:46;;;;;;;3.35;2.92;;;;;;;26.16;44.51;96846.44;5016629;28;20096;-69
2023/08/13 05:22:16;;;;;;;3.83;2.85;;;;;;;26.47;45.41;96843.44;5016725;28;20507;-69
2023/08/13 05:24:43;;;;;;;4.15;2.88;;;;;;;26.65;45.03;96848.81;5016448;28;20385;-69
2023/08/13 05:27:11;;;;;;;4.07;2.42;;;;;;;26.80;44.17;96853.66;5016665;28;20525;-69
2023/08/13 05:29:39;;;;;;;2.83;2.63;;;;;;;26.94;44.10;96853.09;5016509;28;20403;-69
2023/08/13 05:32:07;;;;;;;3.08;2.78;;;;;;;27.18;43.74;96850.81;5016551;28;20049;-69
2023/08/13 05:34:34;;;;;;;3.20;2.90;;;;;;;27.42;43.72;96844.75;5016372;28;20421;-69
2023/08/13 05:37:01;;;;;;;4.10;2.90;;;;;;;27.61;43.63;96841.03;5016370;28;20053;-69
2023/08/13 05:39:30;;;;;;;6.50;3.22;;;;;;;27.91;42.83;96843.38;5016364;28;20489;-69
2023/08/13 05:41:57;;;;;;;2.72;2.53;;;;;;;28.24;41.49;96840.81;5016271;28;20053;-69
2023/08/13 05:44:24;;;;;;;3.03;2.65;;;;;;;28.47;41.21;96839.41;5016231;28;20052;-69
2023/08/13 05:46:51;;;;;;;6.88;3.25;;;;;;;28.72;41.43;96836.75;5016210;28;20069;-69
2023/08/13 05:49:18;;;;;;;3.92;2.95;;;;;;;29.07;40.63;96842.84;5016107;28;20141;-69
2023/08/13 05:51:48;;;;;;;5.70;3.20;;;;;;;29.36;40.30;96848.69;5016102;28;20126;-69
2023/08/13 05:54:15;;;;;;;4.33;3.17;;;;;;;29.57;39.76;96845.50;5016136;28;20124;-69
2023/08/13 05:56:43;;;;;;;3.50;2.63;;;;;;;29.76;39.78;96838.88;5016057;28;20077;-69
2023/08/13 05:59:11;;;;;;;3.83;3.08;;;;;;;30.06;37.13;96842.78;5016371;28;20053;-69
2023/08/13 06:01:38;;;;;;;4.03;2.75;;;;;;;30.09;34.53;96843.31;5015948;28;20408;-69
2023/08/13 06:04:06;;;;;;;3.13;2.83;;;;;;;30.17;35.71;96837.06;5015953;28;20054;-69
2023/08/13 06:06:34;;;;;;;3.85;2.78;;;;;;;30.22;36.35;96839.25;5015832;28;20050;-69
2023/08/13 06:09:01;;;;;;;3.75;3.35;;;;;;;30.32;35.60;96837.16;5015656;28;20410;-69
2023/08/13 06:11:29;;;;;;;6.97;2.55;;;;;;;29.86;32.13;96838.66;5015644;28;20050;-68
2023/08/13 06:13:58;;;;;;;2.85;2.60;;;;;;;29.34;33.22;96842.63;5015687;28;20050;-69
2023/08/13 06:16:25;;;;;;;4.82;2.65;;;;;;;29.16;31.77;96840.97;5015519;28;20434;-69
2023/08/13 06:18:53;;;;;;;3.55;2.58;;;;;;;28.99;31.90;96835.59;5015701;28;20050;-68
2023/08/13 06:21:20;;;;;;;3.45;2.65;;;;;;;28.82;32.53;96839.25;5015547;28;20140;-69
2023/08/13 06:23:47;;;;;;;4.05;2.40;;;;;;;28.70;31.30;96841.44;5015476;28;20042;-69
2023/08/13 06:26:14;;;;;;;2.78;2.20;;;;;;;28.37;32.56;96848.44;5014629;28;20050;-68
2023/08/13 06:28:42;;;;;;;7.28;2.63;;;;;;;28.39;31.18;96850.97;5015462;28;20061;-68
2023/08/13 06:31:10;;;;;;;3.33;2.33;;;;;;;28.28;31.16;96843.16;5015408;28;20053;-69
2023/08/13 06:33:38;;;;;;;5.65;2.42;;;;;;;28.35;31.85;96849.63;5015509;28;20097;-68
2023/08/13 06:36:05;;;;;;;4.20;2.50;;;;;;;28.71;32.13;96856.59;5015205;28;20041;-68
2023/08/13 06:38:32;;;;;;;3.28;2.33;;;;;;;29.00;30.96;96852.59;5015227;28;20488;-68
2023/08/13 06:41:03;;;;;;;2.92;2.60;;;;;;;29.37;30.01;96855.75;5015161;28;20406;-68
2023/08/13 06:43:31;;;;;;;4.43;2.40;;;;;;;29.42;29.81;96856.09;5015131;28;20085;-69
2023/08/13 06:45:58;;;;;;;3.33;2.70;;;;;;;29.67;29.76;96849.88;5015149;28;20061;-69
2023/08/13 06:48:28;;;;;;;2.40;2.20;;;;;;;29.69;29.00;96861.28;5015751;28;20045;-69
2023/08/13 06:50:56;;;;;;;3.83;2.30;;;;;;;29.31;28.16;96859.16;5015039;28;20053;-69
2023/08/13 06:53:23;;;;;;;4.50;2.70;;;;;;;29.28;29.62;96851.41;5015082;28;20137;-69
2023/08/13 06:55:51;;;;;;;3.58;2.53;;;;;;;29.35;27.78;96858.63;5014696;28;20491;-69
2023/08/13 06:58:18;;;;;;;2.83;2.20;;;;;;;29.42;28.29;96861.50;5014926;28;20054;-69
2023/08/13 07:00:47;;;;;;;6.40;2.53;;;;;;;29.21;28.71;96848.56;5015376;28;20042;-68
2023/08/13 07:03:14;;;;;;;5.97;2.58;;;;;;;29.26;29.65;96852.41;5014788;28;20046;-68
2023/08/13 07:05:43;;;;;;;2.55;2.28;;;;;;;29.56;29.06;96856.44;5014780;28;20412;-68
2023/08/13 07:08:11;;;;;;;3.83;2.60;;;;;;;29.85;29.72;96849.63;5014954;28;20045;-69
2023/08/13 07:10:39;;;;;;;3.25;2.20;;;;;;;29.84;27.98;96854.19;5014715;28;20057;-68
2023/08/13 07:13:06;;;;;;;3.13;2.45;;;;;;;29.85;29.42;96861.25;5014836;28;20056;-69
2023/08/13 07:15:33;;;;;;;5.78;2.38;;;;;;;29.87;27.88;96863.78;5014903;28;20412;-69
2023/08/13 07:18:01;;;;;;;5.50;2.25;;;;;;;30.11;28.10;96862.84;5014417;28;20061;-68
2023/08/13 07:20:28;;;;;;;3.58;2.10;;;;;;;30.29;27.29;96855.53;5014432;28;20050;-69
2023/08/13 07:23:00;;;;;;;3.45;2.30;;;;;;;30.51;26.45;96854.75;5014395;28;20464;-69
2023/08/13 07:25:28;;;;;;;3.50;2.45;;;;;;;30.60;25.27;96862.78;5014066;28;20045;-69
2023/08/13 07:27:55;;;;;;;7.18;2.20;;;;;;;30.42;26.74;96847.72;5014253;28;20096;-68
2023/08/13 07:30:24;;;;;;;2.53;2.20;;;;;;;30.68;25.55;96851.94;5014197;28;20498;-69
2023/08/13 07:32:52;;;;;;;4.47;2.47;;;;;;;30.82;26.14;96863.84;5014274;28;20049;-69
2023/08/13 07:35:21;;;;;;;3.17;2.45;;;;;;;30.71;25.84;96854.28;5014312;28;20054;-68
2023/08/13 07:37:49;;;;;;;3.55;2.60;;;;;;;30.92;25.18;96854.66;5013334;28;20157;-69
2023/08/13 07:40:18;;;;;;;5.45;2.50;;;;;;;30.94;25.19;96860.75;5014150;28;20049;-69
2023/08/13 07:42:46;;;;;;;2.85;2.38;;;;;;;31.15;26.25;96860.91;5013993;28;20124;-69
2023/08/13 07:45:14;;;;;;;4.18;2.90;;;;;;;31.14;25.17;96852.97;5014008;28;20084;-69
2023/08/13 07:47:41;;;;;;;2.88;2.28;;;;;;;30.88;25.67;96860.44;5013979;28;20566;-69
2023/08/13 07:50:09;;;;;;;5.50;2.45;;;;;;;31.03;25.07;96848.84;5013863;28;20133;-69
2023/08/13 07:52:36;;;;;;;2.88;2.28;;;;;;;30.87;25.41;96855.22;5013765;28;20050;-69
2023/08/13 07:55:05;;;;;;;3.80;2.75;;;;;;;30.93;24.72;96857.19;5013975;28;20128;-68
2023/08/13 07:57:34;;;;;;;3.67;2.40;;;;;;;30.83;25.88;96854.75;5013745;28;20112;-69
2023/08/13 08:00:02;;;;;;;3.33;2.40;;;;;;;30.75;26.35;96854.75;5013785;28;20132;-68
2023/08/13 08:02:29;;;;;;;3.58;2.30;;;;;;;30.42;25.83;96849.56;5013678;28;20054;-69
2023/08/13 08:04:56;;;;;;;6.05;2.30;;;;;;;30.14;26.59;96849.03;5013549;28;20050;-68
2023/08/13 08:07:25;;;;;;;3.28;2.70;;;;;;;29.97;26.76;96852.78;5013744;28;20048;-68
2023/08/13 08:09:53;;;;;;;3.40;2.35;;;;;;;29.59;27.52;96848.03;5013718;28;20046;-69
2023/08/13 08:12:20;;;;;;;3.53;2.30;;;;;;;29.53;28.90;96844.16;5013662;28;20385;-68
2023/08/13 08:14:48;;;;;;;4.60;2.72;;;;;;;29.87;28.53;96847.59;5013482;28;20058;-68
2023/08/13 08:17:16;;;;;;;3.28;2.05;;;;;;;29.86;28.56;96844.06;5013457;28;20073;-69
2023/08/13 08:19:44;;;;;;;3.35;2.75;;;;;;;29.69;28.20;96834.34;5013622;28;20100;-69
2023/08/13 08:22:11;;;;;;;2.75;2.55;;;;;;;29.60;28.73;96845.16;5013626;28;20100;-69
2023/08/13 08:24:39;;;;;;;2.78;2.47;;;;;;;29.36;27.71;96835.25;5013388;28;20046;-69
2023/08/13 08:27:07;;;;;;;5.82;2.92;;;;;;;29.44;28.92;96831.69;5013480;28;20041;-69
2023/08/13 08:29:35;;;;;;;2.78;2.50;;;;;;;29.60;28.53;96828.16;5013351;28;20050;-68
2023/08/13 08:32:04;;;;;;;2.65;2.22;;;;;;;29.58;28.98;96824.78;5013410;28;20046;-68
2023/08/13 08:34:32;;;;;;;2.60;2.38;;;;;;;29.24;27.02;96823.97;5013321;28;20137;-68
2023/08/13 08:36:59;;;;;;;6.25;2.33;;;;;;;28.80;26.44;96822.47;5013119;28;20061;-68
2023/08/13 08:39:26;;;;;;;4.38;2.55;;;;;;;28.69;28.85;96827.16;5013237;28;20495;-68
2023/08/13 08:41:57;;;;;;;2.97;2.47;;;;;;;28.59;27.98;96837.25;5013469;28;20054;-69
2023/08/13 08:44:25;;;;;;;2.75;2.13;;;;;;;28.48;29.23;96827.63;5013428;28;20104;-68
2023/08/13 08:46:59;;;;;;;4.00;2.72;;;;;;;28.49;27.52;96807.78;5013071;28;20381;-68
2023/08/13 08:49:30;;;;;;;2.75;2.40;;;;;;;28.44;27.76;96810.16;5015761;28;20439;-68
2023/08/13 08:52:01;;;;;;;3.33;2.50;;;;;;;28.68;27.81;96808.50;5017226;28;20104;-68
2023/08/13 08:54:32;;;;;;;8.82;2.70;;;;;;;28.67;28.76;96806.78;5017090;28;20068;-68
2023/08/13 08:57:01;;;;;;;6.63;2.95;;;;;;;28.62;28.95;96808.13;5017027;28;20053;-68
2023/08/13 08:59:30;;;;;;;2.60;2.40;;;;;;;29.02;28.43;96815.59;5017197;28;20469;-68
2023/08/13 09:01:59;;;;;;;7.45;2.47;;;;;;;28.96;26.65;96802.81;5017060;28;20077;-69
2023/08/13 09:04:29;;;;;;;6.20;2.28;;;;;;;28.99;26.84;96805.16;5017006;28;20061;-69
2023/08/13 09:06:58;;;;;;;5.05;2.58;;;;;;;29.19;26.82;96810.19;5017102;28;20088;-68
2023/08/13 09:09:27;;;;;;;5.87;2.70;;;;;;;29.63;26.40;96817.03;5016993;28;20076;-68
2023/08/13 09:11:55;;;;;;;2.92;2.33;;;;;;;29.86;25.29;96810.88;5016897;28;20718;-68
2023/08/13 09:14:25;;;;;;;2.35;2.00;;;;;;;29.32;25.60;96810.50;5016781;28;20076;-68
2023/08/13 09:16:54;;;;;;;4.20;2.27;;;;;;;29.04;25.50;96805.47;5016660;28;20116;-68
2023/08/13 09:19:24;;;;;;;3.55;2.40;;;;;;;29.19;27.12;96805.63;5016647;28;20046;-68
2023/08/13 09:21:55;;;;;;;4.85;2.58;;;;;;;29.14;26.78;96797.25;5016739;28;20049;-68
2023/08/13 09:24:33;;;;;;;2.60;2.20;;;;;;;29.09;27.48;96799.59;5016659;28;20093;-69
2023/08/13 09:27:01;;;;;;;6.07;2.30;;;;;;;28.54;27.80;96794.69;5016445;28;20054;-68
2023/08/13 09:29:31;;;;;;;4.25;2.55;;;;;;;28.36;27.38;96792.16;5016613;28;20081;-68
2023/08/13 09:31:59;;;;;;;3.28;2.50;;;;;;;28.69;27.71;96802.09;5016510;28;20380;-68
2023/08/13 09:34:28;;;;;;;4.72;2.42;;;;;;;28.88;27.10;96790.16;5016492;28;20108;-68
2023/08/13 09:36:58;;;;;;;2.92;2.40;;;;;;;28.98;27.02;96779.22;5016293;28;20507;-68
2023/08/13 09:39:26;;;;;;;2.97;2.53;;;;;;;28.74;27.32;96783.59;5016550;28;20087;-68
2023/08/13 09:41:54;;;;;;;3.75;2.70;;;;;;;29.04;26.96;96801.97;5016404;28;20054;-68
2023/08/13 09:44:35;;;;;;;3.13;2.30;;;;;;;29.16;27.58;96789.81;5016209;28;20558;-68
2023/08/13 09:47:05;;;;;;;3.08;2.40;;;;;;;28.73;26.74;96792.69;5016096;28;20507;-68
2023/08/13 09:49:35;;;;;;;4.05;2.00;;;;;;;28.64;27.40;96791.84;5016223;28;20081;-68
2023/08/13 09:52:08;;;;;;;3.73;2.40;;;;;;;28.80;27.02;96792.88;5016425;28;20046;-68
2023/08/13 09:54:45;;;;;;;3.05;2.30;;;;;;;29.05;26.76;96791.03;5016147;28;20283;-68
2023/08/13 09:57:16;;;;;;;3.20;2.33;;;;;;;29.32;26.73;96782.72;5016013;28;20077;-68
2023/08/13 09:59:45;;;;;;;2.55;2.28;;;;;;;29.32;26.06;96788.13;5015190;28;20046;-68
2023/08/13 10:02:15;;;;;;;2.80;2.20;;;;;;;29.27;25.35;96785.94;5016470;28;20050;-69
2023/08/13 10:04:43;;;;;;;3.67;2.10;;;;;;;29.10;26.38;96783.28;5016580;28;20491;-68
2023/08/13 10:07:14;;;;;;;5.35;2.97;;;;;;;29.20;26.27;96793.84;5015948;28;20136;-68
2023/08/13 10:09:43;;;;;;;4.30;2.63;;;;;;;29.19;26.20;96781.41;5015914;28;20054;-68
2023/08/13 10:12:10;;;;;;;3.63;2.53;;;;;;;29.16;25.44;96776.34;5015878;28;20385;-68
2023/08/13 10:14:38;;;;;;;4.57;2.10;;;;;;;29.04;26.78;96764.28;5016354;28;20408;-68
2023/08/13 10:17:07;;;;;;;3.78;2.20;;;;;;;29.29;25.73;96767.78;5015838;28;20060;-68
2023/08/13 10:19:38;;;;;;;4.68;2.75;;;;;;;29.33;26.27;96768.25;5015777;28;20058;-68
2023/08/13 10:22:10;;;;;;;3.10;1.95;;;;;;;29.44;26.08;96775.13;5015856;28;20132;-68
2023/08/13 10:24:39;;;;;;;6.78;2.28;;;;;;;29.66;26.60;96767.31;5016070;28;20202;-68
2023/08/13 10:27:07;;;;;;;4.25;2.53;;;;;;;29.79;27.20;96764.09;5035784;28;20052;-68
2023/08/13 10:29:41;;;;;;;3.08;2.05;;;;;;;29.94;27.35;96759.63;5035785;28;20400;-68
2023/08/13 10:32:13;;;;;;;3.38;2.40;;;;;;;30.23;26.56;96765.41;5035527;28;20049;-68
2023/08/13 10:34:42;;;;;;;2.55;2.30;;;;;;;30.14;26.28;96760.03;5035468;28;20042;-68
2023/08/13 10:37:16;;;;;;;2.40;2.13;;;;;;;29.97;25.09;96777.28;5035328;28;20042;-69
2023/08/13 10:39:46;;;;;;;3.83;2.30;;;;;;;29.73;26.03;96766.47;5035237;28;20057;-68
2023/08/13 10:42:49;;;;;;;7.28;2.67;;;;;;;29.78;26.27;96747.06;5035427;28;20053;-68
2023/08/13 10:45:18;;;;;;;2.53;2.15;;;;;;;29.91;26.58;96743.81;5035094;28;20107;-68
2023/08/13 10:47:47;;;;;;;4.90;2.45;;;;;;;29.92;26.49;96740.13;5034911;28;20056;-68
2023/08/13 10:50:28;;;;;;;4.13;2.78;;;;;;;29.98;25.75;96757.44;5035226;28;20049;-68
2023/08/13 10:53:03;;;;;;;2.45;2.13;;;;;;;29.76;25.81;96741.00;5034699;28;20045;-68
2023/08/13 10:55:35;;;;;;;2.35;2.15;;;;;;;29.64;26.10;96746.81;5034683;28;20135;-68
2023/08/13 10:58:02;;;;;;;2.92;2.42;;;;;;;29.61;26.76;96744.44;5034522;28;20053;-68
2023/08/13 11:00:30;;;;;;;2.65;2.42;;;;;;;29.43;27.44;96741.94;5034667;28;20061;-68
2023/08/13 11:03:01;;;;;;;3.05;2.20;;;;;;;29.38;27.61;96744.34;5034323;28;20049;-68
2023/08/13 11:05:29;;;;;;;2.60;2.40;;;;;;;29.42;27.23;96732.22;5034533;28;20461;-68
2023/08/13 11:07:57;;;;;;;3.10;2.20;;;;;;;29.41;26.66;96740.47;5034549;28;20045;-68
2023/08/13 11:10:24;;;;;;;3.72;2.67;;;;;;;29.41;27.59;96738.63;5034428;28;20052;-68
2023/08/13 11:12:53;;;;;;;4.90;2.20;;;;;;;29.49;27.50;96733.19;5034298;28;20491;-68
2023/08/13 11:15:21;;;;;;;3.38;2.55;;;;;;;29.67;28.01;96731.31;5034348;28;20057;-68
2023/08/13 11:17:48;;;;;;;4.05;2.35;;;;;;;29.81;26.72;96727.88;5034135;28;20061;-68
2023/08/13 11:20:18;;;;;;;3.22;2.25;;;;;;;29.71;27.26;96719.97;5034370;28;20053;-68
2023/08/13 11:22:46;;;;;;;6.25;2.78;;;;;;;29.41;27.92;96716.22;5034087;28;20052;-69
2023/08/13 11:25:15;;;;;;;3.05;2.85;;;;;;;29.29;26.72;96716.59;5029513;28;20058;-68
2023/08/13 11:27:43;;;;;;;6.18;2.30;;;;;;;29.32;26.78;96710.88;5014325;28;20104;-68
2023/08/13 11:30:13;;;;;;;3.40;2.40;;;;;;;29.41;27.44;96716.22;5014314;28;20412;-69
2023/08/13 11:32:40;;;;;;;3.03;2.72;;;;;;;29.47;26.99;96710.13;5014160;28;20133;-68
2023/08/13 11:35:10;;;;;;;3.03;2.42;;;;;;;29.41;26.78;96709.00;5014271;28;20053;-68
2023/08/13 11:37:38;;;;;;;2.50;2.05;;;;;;;29.22;27.54;96704.81;5014293;28;20112;-68
2023/08/13 11:40:10;;;;;;;2.92;2.60;;;;;;;29.23;27.11;96703.81;5014011;28;20140;-68